Terminal Aerodrome Forecast
Issued by NWS Charleston, WV

Current Version | Previous Version | Text Only | Print | Product List | Glossary On
Versions: 1 2 3 4 5 6 7 8 9 10 11 12 13 14 15 16 17 18 19 20 21 22 23
000
FTUS41 KRLX 280859 AAA
TAFHTS
TAF AMD
KHTS 280859Z 2809/0106 00000KT P6SM BKN200
     FM281500 17006KT P6SM OVC050
     FM281600 18007KT P6SM -SHRA SCT020 OVC040
     FM281800 18007KT 4SM SHRA VCTS BKN025 OVC035CB
     FM282300 19007KT P6SM OVC020=

USA.gov is the U.S. government's official web portal to all federal, state and local government web resources and services.